Time;durP1;ratioP1;P1;durP2;ratioP2;P2;SDS_P1;SDS_P2;PMS_P1;PMS_P2;Temp;Humidity;BMP_temperature;BMP_pressure;BME280_temperature;BME280_humidity;BME280_pressure;Samples;Min_cycle;Max_cycle;Signal;HPM_P1;HPM_P2
2023/02/08 00:00:22;;;;;;;55.10;31.83;;;-0.80;99.90;;;;;;5072534;28;20216;-49
2023/02/08 00:02:49;;;;;;;44.78;31.58;;;-0.30;99.90;;;;;;5072967;28;20680;-49
2023/02/08 00:05:17;;;;;;;52.60;29.83;;;-0.30;99.90;;;;;;5072990;28;20202;-49
2023/02/08 00:07:43;;;;;;;49.15;30.67;;;-0.60;99.90;;;;;;5072815;28;20237;-48
2023/02/08 00:10:10;;;;;;;43.47;31.90;;;-0.80;99.90;;;;;;5072361;28;20204;-49
2023/02/08 00:12:38;;;;;;;47.78;30.25;;;-0.80;99.90;;;;;;5072857;28;20202;-49
2023/02/08 00:15:05;;;;;;;49.17;30.83;;;-0.60;99.90;;;;;;5072907;28;20204;-49
2023/02/08 00:17:33;;;;;;;51.33;31.30;;;-0.70;99.90;;;;;;5072705;28;20199;-49
2023/02/08 00:19:59;;;;;;;47.78;31.08;;;-0.70;99.90;;;;;;5072782;28;20692;-48
2023/02/08 00:22:26;;;;;;;44.53;30.63;;;-0.70;99.90;;;;;;5073292;28;20681;-48
2023/02/08 00:24:53;;;;;;;44.38;29.10;;;-0.80;99.90;;;;;;5072469;28;20205;-49
2023/02/08 00:27:19;;;;;;;51.30;30.80;;;-0.90;99.90;;;;;;5054209;28;20201;-49
2023/02/08 00:29:46;;;;;;;47.78;30.65;;;-0.60;99.90;;;;;;5054053;28;20579;-49
2023/02/08 00:32:13;;;;;;;47.67;30.95;;;-1.00;99.90;;;;;;5072261;28;20197;-49
2023/02/08 00:34:41;;;;;;;76.00;30.88;;;-1.00;99.90;;;;;;5072139;28;20208;-49
2023/02/08 00:37:09;;;;;;;55.47;31.05;;;-0.90;99.90;;;;;;5054506;28;20201;-50
2023/02/08 00:39:36;;;;;;;60.67;31.02;;;-0.80;99.90;;;;;;5053765;28;20280;-50
2023/02/08 00:42:02;;;;;;;50.70;30.33;;;-0.90;99.90;;;;;;5054115;28;20728;-50
2023/02/08 00:44:29;;;;;;;62.15;32.65;;;-0.90;99.90;;;;;;5072190;28;20192;-50
2023/02/08 00:46:56;;;;;;;54.90;33.20;;;-0.80;99.90;;;;;;5072570;28;20199;-50
2023/02/08 00:49:22;;;;;;;43.05;27.88;;;-1.60;99.90;;;;;;5071725;28;20209;-48
2023/02/08 00:51:50;;;;;;;49.75;32.97;;;-0.80;99.90;;;;;;5054204;28;20233;-49
2023/02/08 00:54:18;;;;;;;47.65;29.77;;;-1.00;99.90;;;;;;5071940;28;20196;-48
2023/02/08 00:56:45;;;;;;;47.28;31.45;;;-1.00;99.90;;;;;;5053971;28;20656;-49
2023/02/08 00:59:13;;;;;;;47.80;31.33;;;-1.00;99.90;;;;;;5071836;28;20391;-49
2023/02/08 01:01:40;;;;;;;49.72;32.33;;;-1.00;99.90;;;;;;5053889;28;20726;-49
2023/02/08 01:04:07;;;;;;;44.83;30.40;;;-1.00;99.90;;;;;;5071919;28;20191;-48
2023/02/08 01:06:33;;;;;;;47.28;30.58;;;-1.00;99.90;;;;;;5071895;28;20224;-49
2023/02/08 01:09:01;;;;;;;58.05;32.72;;;-0.90;99.90;;;;;;5053291;28;20223;-48
2023/02/08 01:11:28;;;;;;;49.10;30.48;;;-0.90;99.90;;;;;;5053888;28;20195;-48
2023/02/08 01:13:57;;;;;;;50.63;31.25;;;-0.90;99.90;;;;;;5071952;28;20202;-48
2023/02/08 01:16:26;;;;;;;44.00;30.38;;;-1.00;99.90;;;;;;5071778;28;20560;-49
2023/02/08 01:18:55;;;;;;;43.75;30.25;;;-1.00;99.90;;;;;;5053374;28;20231;-49
2023/02/08 01:21:24;;;;;;;43.47;29.73;;;-1.10;99.90;;;;;;5053950;28;20238;-48
2023/02/08 01:23:51;;;;;;;43.20;29.15;;;-1.50;99.90;;;;;;5053783;28;20210;-50
2023/02/08 01:26:20;;;;;;;41.03;28.05;;;-1.10;99.90;;;;;;5071940;28;20199;-49
2023/02/08 01:28:48;;;;;;;47.72;30.38;;;-1.30;99.90;;;;;;5071395;28;20215;-49
2023/02/08 01:31:16;;;;;;;51.22;29.13;;;-1.30;99.90;;;;;;5054144;28;20249;-49
2023/02/08 01:33:43;;;;;;;49.55;32.55;;;-1.20;99.90;;;;;;5071589;28;20196;-49
2023/02/08 01:36:10;;;;;;;44.72;30.02;;;-1.20;99.90;;;;;;5071560;28;20211;-49
2023/02/08 01:38:38;;;;;;;53.58;32.97;;;-1.70;99.90;;;;;;5053209;28;20219;-49
2023/02/08 01:41:07;;;;;;;48.55;30.40;;;-1.10;99.90;;;;;;5053587;28;20235;-49
2023/02/08 01:44:05;;;;;;;45.00;28.73;;;-0.90;99.90;;;;;;5071557;28;20227;-50
2023/02/08 01:46:32;;;;;;;48.25;28.45;;;-1.20;99.90;;;;;;5056482;28;20259;-49
2023/02/08 01:49:03;;;;;;;46.65;29.50;;;-1.10;99.90;;;;;;5056920;28;20235;-49
2023/02/08 01:51:34;;;;;;;40.40;28.42;;;-0.90;99.90;;;;;;5075644;28;20590;-49
2023/02/08 01:54:03;;;;;;;44.15;28.58;;;-1.30;99.90;;;;;;5057464;28;20216;-49
2023/02/08 01:56:34;;;;;;;46.33;29.77;;;-1.10;99.90;;;;;;5075390;28;20386;-48
2023/02/08 01:59:06;;;;;;;47.35;30.77;;;-1.00;99.90;;;;;;5056926;28;20221;-50
2023/02/08 02:01:33;;;;;;;44.08;30.73;;;-1.30;99.90;;;;;;5057156;28;20228;-49
2023/02/08 02:04:02;;;;;;;45.60;28.67;;;-1.20;99.90;;;;;;5057183;28;20195;-49
2023/02/08 02:06:33;;;;;;;43.00;30.38;;;-1.00;99.90;;;;;;5075488;28;20602;-48
2023/02/08 02:09:12;;;;;;;42.40;27.77;;;-1.40;99.90;;;;;;5074943;28;20594;-49
2023/02/08 02:11:38;;;;;;;50.30;29.33;;;-1.30;99.90;;;;;;5057730;28;20569;-47
2023/02/08 02:14:08;;;;;;;44.53;30.50;;;-1.90;99.90;;;;;;5057218;28;20204;-47
2023/02/08 02:16:36;;;;;;;41.63;27.63;;;-1.20;99.90;;;;;;5057262;28;20294;-48
2023/02/08 02:19:04;;;;;;;41.13;27.92;;;-1.20;99.90;;;;;;5075141;28;20227;-49
2023/02/08 02:21:45;;;;;;;46.53;28.85;;;-1.20;99.90;;;;;;5058101;28;20226;-49
2023/02/08 02:24:37;;;;;;;46.13;30.02;;;-1.10;99.90;;;;;;5058720;28;20215;-48
2023/02/08 02:27:20;;;;;;;44.22;29.10;;;-1.20;99.90;;;;;;5075973;28;20733;-47
2023/02/08 02:30:14;;;;;;;39.13;28.08;;;-1.20;99.90;;;;;;5056877;28;20207;-47
2023/02/08 02:32:57;;;;;;;36.95;25.63;;;-1.40;99.90;;;;;;5075200;28;20198;-48
2023/02/08 02:35:34;;;;;;;42.95;27.35;;;-1.30;99.90;;;;;;5075051;28;20199;-46
2023/02/08 02:38:10;;;;;;;44.45;27.65;;;-1.20;99.90;;;;;;5074889;28;20228;-48
2023/02/08 02:40:49;;;;;;;45.15;28.48;;;-1.30;99.90;;;;;;5057396;28;20231;-48
2023/02/08 02:46:13;;;;;;;39.92;26.13;;;-1.20;99.90;;;;;;5056746;28;20195;-47
2023/02/08 02:48:49;;;;;;;38.42;26.40;;;-1.80;99.90;;;;;;5074275;28;20223;-47
2023/02/08 02:51:20;;;;;;;41.88;27.48;;;-1.30;99.90;;;;;;5074975;28;20191;-46
2023/02/08 02:53:53;;;;;;;39.05;26.63;;;-1.20;99.90;;;;;;5075520;28;20196;-48
2023/02/08 02:56:23;;;;;;;39.65;27.55;;;-1.70;99.90;;;;;;5056122;28;20592;-47
2023/02/08 02:58:51;;;;;;;39.17;27.92;;;-1.20;99.90;;;;;;5073313;28;20714;-47
2023/02/08 03:01:24;;;;;;;36.72;26.08;;;-1.20;99.90;;;;;;5074154;28;20228;-48
2023/02/08 03:03:53;;;;;;;40.42;27.83;;;-1.10;99.90;;;;;;5074184;28;20200;-47
2023/02/08 03:06:28;;;;;;;39.28;27.35;;;-1.40;99.90;;;;;;5074078;28;20230;-46
2023/02/08 03:09:13;;;;;;;41.80;27.60;;;-1.40;99.90;;;;;;5074862;28;20608;-48
2023/02/08 03:11:51;;;;;;;35.28;24.08;;;-1.30;99.90;;;;;;5056746;28;20210;-47
2023/02/08 03:14:45;;;;;;;43.40;27.90;;;-1.30;99.90;;;;;;5074575;28;20208;-47
2023/02/08 03:17:28;;;;;;;40.75;27.00;;;-0.90;99.90;;;;;;5031942;28;20206;-47
2023/02/08 03:20:07;;;;;;;35.67;25.42;;;-1.10;99.90;;;;;;5048352;28;20207;-46
2023/02/08 03:22:42;;;;;;;35.70;24.80;;;-1.20;99.90;;;;;;5074044;28;20221;-47
2023/02/08 03:25:16;;;;;;;39.70;24.98;;;-1.10;99.90;;;;;;5055986;28;20202;-46
2023/02/08 03:27:54;;;;;;;34.38;23.67;;;-1.30;99.90;;;;;;5074136;28;20219;-47
2023/02/08 03:30:27;;;;;;;37.08;24.42;;;-1.10;99.90;;;;;;5073443;28;20199;-47
2023/02/08 03:32:59;;;;;;;34.97;23.10;;;-1.10;99.90;;;;;;5073445;28;20231;-48
2023/02/08 03:35:32;;;;;;;33.30;22.63;;;-0.90;99.90;;;;;;5073481;28;20253;-48
2023/02/08 03:38:02;;;;;;;38.42;22.45;;;-1.20;99.90;;;;;;5073400;28;20228;-47
2023/02/08 03:40:34;;;;;;;34.60;22.55;;;-1.00;99.90;;;;;;5073361;28;20572;-46
2023/02/08 03:43:08;;;;;;;34.97;23.30;;;-1.00;99.90;;;;;;5073207;28;20220;-49
2023/02/08 03:45:40;;;;;;;34.10;23.83;;;-1.10;99.90;;;;;;5073833;28;20260;-47
2023/02/08 03:48:09;;;;;;;35.90;23.95;;;-1.20;99.90;;;;;;5073137;28;20220;-47
2023/02/08 03:50:40;;;;;;;36.20;22.40;;;-1.20;99.90;;;;;;5074329;28;20191;-46
2023/02/08 03:53:07;;;;;;;33.60;22.40;;;-1.20;99.90;;;;;;5074254;28;20691;-46
2023/02/08 03:55:37;;;;;;;34.10;22.70;;;-1.20;99.90;;;;;;5073304;28;20200;-46
2023/02/08 03:58:07;;;;;;;32.03;21.80;;;-1.20;99.90;;;;;;5072969;28;20216;-47
2023/02/08 04:00:38;;;;;;;38.45;22.55;;;-1.20;99.90;;;;;;5073125;28;20211;-47
2023/02/08 04:03:10;;;;;;;32.70;21.63;;;-1.30;99.90;;;;;;5072851;28;20221;-48
2023/02/08 04:05:39;;;;;;;32.00;22.75;;;-1.10;99.90;;;;;;5073321;28;20288;-48
2023/02/08 04:08:05;;;;;;;35.13;24.08;;;-1.00;99.90;;;;;;5072755;28;20230;-47
2023/02/08 04:10:32;;;;;;;31.60;22.40;;;-1.20;99.90;;;;;;5073237;28;20199;-46
2023/02/08 04:12:59;;;;;;;32.90;22.50;;;-1.60;99.90;;;;;;5073100;28;20207;-46
2023/02/08 04:15:26;;;;;;;32.53;23.45;;;-1.20;99.90;;;;;;5073376;28;20200;-47
2023/02/08 04:17:53;;;;;;;33.85;23.55;;;-1.10;99.90;;;;;;5072608;28;20219;-49
2023/02/08 04:20:20;;;;;;;34.95;24.05;;;-1.20;99.90;;;;;;5072634;28;20195;-48
2023/02/08 04:22:48;;;;;;;34.80;23.45;;;-1.50;99.90;;;;;;5073245;28;20252;-48
2023/02/08 04:25:15;;;;;;;31.15;22.55;;;-1.10;99.90;;;;;;5072814;28;20198;-48
2023/02/08 04:27:41;;;;;;;36.55;22.20;;;-1.40;99.90;;;;;;5072362;28;20223;-48
2023/02/08 04:30:09;;;;;;;34.78;21.98;;;-1.20;99.90;;;;;;5072097;28;20196;-50
2023/02/08 04:32:36;;;;;;;34.45;24.77;;;-1.40;99.90;;;;;;5072338;28;20211;-49
2023/02/08 04:35:03;;;;;;;34.05;21.77;;;-1.40;99.90;;;;;;5072325;28;20203;-48
2023/02/08 04:37:30;;;;;;;36.60;22.80;;;-1.50;99.90;;;;;;5072348;28;20204;-49
2023/02/08 04:39:58;;;;;;;37.97;22.52;;;-1.10;99.90;;;;;;5054181;28;20203;-49
2023/02/08 04:42:25;;;;;;;31.13;21.48;;;-1.20;99.90;;;;;;5072109;28;20228;-48
2023/02/08 04:44:51;;;;;;;34.53;23.05;;;-1.30;99.90;;;;;;5072054;28;20191;-49
2023/02/08 04:47:18;;;;;;;31.02;21.00;;;-1.20;99.90;;;;;;5072103;28;20196;-49
2023/02/08 04:49:45;;;;;;;35.55;22.13;;;-1.30;99.90;;;;;;5071755;28;20234;-49
2023/02/08 04:52:12;;;;;;;30.10;21.33;;;-1.00;99.90;;;;;;5072052;28;20673;-48
2023/02/08 04:54:38;;;;;;;31.05;21.10;;;-1.40;99.90;;;;;;5072055;28;20200;-48
2023/02/08 04:57:06;;;;;;;35.55;23.08;;;-1.30;99.90;;;;;;5072137;28;20294;-48
2023/02/08 04:59:33;;;;;;;30.25;21.05;;;-1.10;99.90;;;;;;5071755;28;20220;-49
2023/02/08 05:02:00;;;;;;;34.05;21.60;;;-1.20;99.90;;;;;;5072100;28;20689;-49
2023/02/08 05:04:26;;;;;;;37.33;21.52;;;-1.40;99.90;;;;;;5071968;28;20211;-49
2023/02/08 05:06:53;;;;;;;35.60;22.52;;;-1.00;99.90;;;;;;5072334;28;20662;-50
2023/02/08 05:09:20;;;;;;;29.70;20.42;;;-1.10;99.90;;;;;;5071614;28;20219;-50
2023/02/08 05:11:46;;;;;;;34.33;21.73;;;-1.50;99.90;;;;;;5072117;28;20195;-50
2023/02/08 05:14:14;;;;;;;35.78;22.38;;;-1.00;99.90;;;;;;5071956;28;20603;-50
2023/02/08 05:16:41;;;;;;;32.72;22.02;;;-1.00;99.90;;;;;;5071767;28;20199;-50
2023/02/08 05:19:07;;;;;;;29.83;20.65;;;-1.30;99.90;;;;;;5071595;28;20223;-50
2023/02/08 05:21:34;;;;;;;41.60;24.40;;;-1.20;99.90;;;;;;5074835;28;20197;-50
2023/02/08 05:24:01;;;;;;;33.60;21.73;;;-1.20;99.90;;;;;;5076090;28;20191;-49
2023/02/08 05:26:28;;;;;;;36.20;20.85;;;-1.30;99.90;;;;;;5075908;28;20199;-49
2023/02/08 05:28:54;;;;;;;35.55;22.48;;;-1.10;99.90;;;;;;5075462;28;20215;-49
2023/02/08 05:31:24;;;;;;;38.83;23.92;;;-1.10;99.90;;;;;;5076013;28;20192;-50
2023/02/08 05:33:52;;;;;;;32.70;22.30;;;-1.20;99.90;;;;;;5076148;28;20200;-49
2023/02/08 05:36:21;;;;;;;40.40;22.63;;;-1.40;99.90;;;;;;5075947;28;20200;-49
2023/02/08 05:38:48;;;;;;;38.70;24.73;;;-1.10;99.90;;;;;;5057213;28;20219;-50
2023/02/08 05:41:16;;;;;;;41.25;24.02;;;-1.40;99.90;;;;;;5075534;28;20203;-50
2023/02/08 05:43:42;;;;;;;35.38;23.30;;;-1.10;99.90;;;;;;5075664;28;20223;-49
2023/02/08 05:46:09;;;;;;;34.95;22.13;;;-1.10;99.90;;;;;;5057395;28;20203;-49
2023/02/08 05:48:38;;;;;;;37.83;24.15;;;-1.20;99.90;;;;;;5074882;28;20236;-49
2023/02/08 05:51:04;;;;;;;36.10;24.63;;;-1.20;99.90;;;;;;5075572;28;20621;-49
2023/02/08 05:53:31;;;;;;;33.42;22.30;;;-1.20;99.90;;;;;;5075356;28;20203;-50
2023/02/08 05:55:58;;;;;;;40.33;24.33;;;-1.70;99.90;;;;;;5075148;28;20271;-49
2023/02/08 05:58:25;;;;;;;33.85;24.45;;;-1.20;99.90;;;;;;5056630;28;20227;-48
2023/02/08 06:00:53;;;;;;;34.30;23.25;;;-1.20;99.90;;;;;;5057306;28;20204;-48
2023/02/08 06:03:19;;;;;;;32.70;22.08;;;-1.40;99.90;;;;;;5075201;28;20231;-49
2023/02/08 06:05:48;;;;;;;41.83;23.45;;;-1.80;99.90;;;;;;5075059;28;20575;-48
2023/02/08 06:08:15;;;;;;;38.80;25.50;;;-1.20;99.90;;;;;;5074634;28;20240;-48
2023/02/08 06:10:42;;;;;;;35.17;24.20;;;-1.30;99.90;;;;;;5074805;28;20195;-50
2023/02/08 06:13:08;;;;;;;37.83;23.48;;;-1.30;99.90;;;;;;5074717;28;20195;-49
2023/02/08 06:15:35;;;;;;;38.15;22.67;;;-1.40;99.90;;;;;;5074721;28;20194;-49
2023/02/08 06:18:02;;;;;;;39.03;25.73;;;-0.70;99.90;;;;;;5074715;28;20228;-50
2023/02/08 06:20:28;;;;;;;39.10;26.55;;;-1.40;99.90;;;;;;5075217;28;20196;-48
2023/02/08 06:22:56;;;;;;;44.30;24.90;;;-1.90;99.90;;;;;;5056889;28;20309;-48
2023/02/08 06:25:23;;;;;;;37.13;24.08;;;-1.40;99.90;;;;;;5075229;28;20205;-49
2023/02/08 06:27:49;;;;;;;40.30;25.05;;;-1.40;99.90;;;;;;5074188;28;20223;-49
2023/02/08 06:30:16;;;;;;;39.88;24.20;;;-1.20;99.90;;;;;;5074108;28;20200;-49
2023/02/08 06:32:43;;;;;;;37.58;25.38;;;-1.10;99.90;;;;;;5056054;28;20336;-50
2023/02/08 06:35:10;;;;;;;41.88;24.85;;;-1.80;99.90;;;;;;5074205;28;20634;-50
2023/02/08 06:37:37;;;;;;;39.95;25.58;;;-1.10;99.90;;;;;;5074125;28;20322;-49
2023/02/08 06:40:05;;;;;;;39.63;25.33;;;-1.10;99.90;;;;;;5074327;28;20200;-50
2023/02/08 06:42:32;;;;;;;40.88;25.90;;;-1.10;99.90;;;;;;5073894;28;20223;-49
2023/02/08 06:44:59;;;;;;;43.53;25.08;;;-1.20;99.90;;;;;;5073855;28;20202;-49
2023/02/08 06:47:26;;;;;;;43.25;27.83;;;-1.20;99.90;;;;;;5073717;28;20191;-50
2023/02/08 06:49:53;;;;;;;42.95;26.90;;;-1.10;99.90;;;;;;5055701;28;20195;-50
2023/02/08 06:52:20;;;;;;;40.88;28.05;;;-1.30;99.90;;;;;;5073877;28;20196;-51
2023/02/08 06:54:47;;;;;;;36.78;24.90;;;-1.30;99.90;;;;;;5073330;28;20507;-51
2023/02/08 06:57:15;;;;;;;39.13;25.10;;;-1.00;99.90;;;;;;5073909;28;20204;-49
2023/02/08 06:59:42;;;;;;;42.40;26.88;;;-1.10;99.90;;;;;;5073538;28;20276;-49
2023/02/08 07:02:12;;;;;;;38.30;25.13;;;-1.00;99.90;;;;;;5073961;28;20397;-50
2023/02/08 07:04:38;;;;;;;41.65;24.00;;;-1.10;99.90;;;;;;5073813;28;20291;-49
2023/02/08 07:07:05;;;;;;;41.45;26.30;;;-1.10;99.90;;;;;;5073517;28;20191;-50
2023/02/08 07:09:33;;;;;;;35.55;23.65;;;-1.10;99.90;;;;;;5073229;28;20226;-50
2023/02/08 07:12:03;;;;;;;38.88;25.17;;;-1.10;99.90;;;;;;5073610;28;20310;-49
2023/02/08 07:14:32;;;;;;;33.03;23.55;;;-1.30;99.90;;;;;;5073405;28;20188;-50
2023/02/08 07:16:58;;;;;;;42.75;24.25;;;-1.10;99.90;;;;;;5073664;28;20573;-50
2023/02/08 07:19:25;;;;;;;39.00;23.77;;;-1.20;99.90;;;;;;5073394;28;20231;-48
2023/02/08 07:21:52;;;;;;;46.42;25.55;;;-1.10;99.90;;;;;;5073162;28;20218;-49
2023/02/08 07:24:19;;;;;;;40.33;23.40;;;-1.10;99.90;;;;;;5073576;28;20315;-50
2023/02/08 07:26:45;;;;;;;36.63;24.60;;;-1.10;99.90;;;;;;5073526;28;20196;-49
2023/02/08 07:29:12;;;;;;;39.85;24.67;;;-0.90;99.90;;;;;;5073467;28;20697;-49
2023/02/08 07:31:40;;;;;;;39.08;23.67;;;-1.00;99.90;;;;;;5073339;28;20192;-48
2023/02/08 07:34:06;;;;;;;39.85;24.70;;;-1.10;99.90;;;;;;5073517;28;20657;-50
2023/02/08 07:36:34;;;;;;;40.88;22.95;;;-1.00;99.90;;;;;;5073359;28;20191;-50
2023/02/08 07:39:01;;;;;;;41.38;23.55;;;-0.80;99.90;;;;;;5073520;28;20224;-49
2023/02/08 07:41:28;;;;;;;39.03;23.65;;;-0.90;99.90;;;;;;5073776;28;20288;-49
2023/02/08 07:43:54;;;;;;;47.90;26.30;;;-1.50;99.90;;;;;;5072896;28;20224;-49
2023/02/08 07:46:22;;;;;;;41.03;24.10;;;-1.00;99.90;;;;;;5073595;28;20700;-48
2023/02/08 07:48:51;;;;;;;35.88;23.67;;;-0.90;99.90;;;;;;5072443;28;20244;-49
2023/02/08 07:51:18;;;;;;;44.28;25.67;;;-1.00;99.90;;;;;;5072265;28;20207;-49
2023/02/08 07:53:45;;;;;;;37.67;25.25;;;-1.00;99.90;;;;;;5072520;28;20195;-49
2023/02/08 07:56:11;;;;;;;41.25;24.85;;;-0.80;99.90;;;;;;5072830;28;20268;-49
2023/02/08 07:58:38;;;;;;;42.13;26.55;;;-0.70;99.90;;;;;;5072182;28;20600;-50
2023/02/08 08:01:05;;;;;;;39.60;24.63;;;-0.70;99.90;;;;;;5072355;28;20228;-50
2023/02/08 08:03:32;;;;;;;37.90;24.15;;;-1.10;99.90;;;;;;5071937;28;20224;-51
2023/02/08 08:06:00;;;;;;;38.95;24.13;;;-0.70;99.90;;;;;;5071852;28;20560;-50
2023/02/08 08:08:26;;;;;;;36.53;24.83;;;-0.40;99.90;;;;;;5071977;28;20221;-50
2023/02/08 08:10:53;;;;;;;38.40;24.25;;;-0.70;99.90;;;;;;5075317;22;20800;-53
2023/02/08 08:13:20;;;;;;;37.72;24.67;;;-1.20;99.90;;;;;;5049509;28;20210;-52
2023/02/08 08:15:47;;;;;;;37.88;24.85;;;-0.50;99.90;;;;;;5051499;28;20204;-52
2023/02/08 08:18:13;;;;;;;39.75;25.67;;;-0.50;99.90;;;;;;5050417;28;20206;-52
2023/02/08 08:20:40;;;;;;;39.88;25.67;;;-0.60;99.90;;;;;;5050947;28;20234;-52
2023/02/08 08:23:08;;;;;;;43.17;26.40;;;-0.50;99.90;;;;;;5032946;28;20225;-52
2023/02/08 08:25:34;;;;;;;40.42;25.85;;;-0.60;99.90;;;;;;5050521;28;20204;-53
2023/02/08 08:28:01;;;;;;;50.22;28.15;;;-0.30;99.90;;;;;;5050659;28;20547;-54
2023/02/08 08:30:28;;;;;;;40.22;25.65;;;-0.20;99.90;;;;;;5050455;28;20229;-51
2023/02/08 08:32:55;;;;;;;41.67;25.35;;;-0.10;99.90;;;;;;5051120;28;20578;-52
2023/02/08 08:35:21;;;;;;;42.70;26.23;;;-0.40;99.90;;;;;;5051243;28;20198;-51
2023/02/08 08:37:48;;;;;;;38.45;25.23;;;-0.10;99.90;;;;;;5050741;28;20583;-51
2023/02/08 08:40:16;;;;;;;39.40;26.30;;;0.00;99.90;;;;;;5050416;28;20222;-52
2023/02/08 08:42:43;;;;;;;37.38;25.20;;;-0.10;99.90;;;;;;5050287;28;20210;-53
2023/02/08 08:45:10;;;;;;;45.28;26.75;;;-0.30;99.90;;;;;;5049971;28;20647;-54
2023/02/08 08:47:37;;;;;;;40.95;26.83;;;-0.30;99.90;;;;;;5051017;28;20204;-51
2023/02/08 08:50:04;;;;;;;38.35;26.67;;;0.00;99.90;;;;;;5032786;28;20237;-53
2023/02/08 08:52:30;;;;;;;41.58;26.55;;;-0.10;99.90;;;;;;5050794;28;20195;-50
2023/02/08 08:54:57;;;;;;;38.50;28.48;;;-0.20;99.90;;;;;;5050720;28;20207;-50
2023/02/08 08:57:25;;;;;;;41.50;28.30;;;0.30;99.90;;;;;;5032632;28;20689;-52
2023/02/08 08:59:52;;;;;;;45.38;27.10;;;0.00;99.90;;;;;;5050326;28;20701;-52
2023/02/08 09:02:18;;;;;;;40.08;27.05;;;0.10;99.90;;;;;;5050617;28;20194;-52
2023/02/08 09:04:45;;;;;;;40.10;27.10;;;0.10;99.90;;;;;;5049685;28;20269;-52
2023/02/08 09:07:12;;;;;;;47.58;28.13;;;0.10;99.90;;;;;;5050548;28;20213;-52
2023/02/08 09:09:39;;;;;;;43.33;28.77;;;-0.20;99.90;;;;;;5013342;28;1046545;-53
2023/02/08 09:12:06;;;;;;;42.67;28.50;;;0.20;99.90;;;;;;5050842;28;20284;-52
2023/02/08 09:14:34;;;;;;;44.50;29.85;;;0.20;99.90;;;;;;5051107;28;20616;-51
2023/02/08 09:17:01;;;;;;;46.88;28.27;;;0.30;99.90;;;;;;5051179;28;20203;-51
2023/02/08 09:19:28;;;;;;;45.20;29.95;;;0.10;99.90;;;;;;5051018;28;20195;-50
2023/02/08 09:21:56;;;;;;;48.05;28.02;;;0.40;99.90;;;;;;5051543;28;20205;-53
2023/02/08 09:24:23;;;;;;;46.22;27.00;;;0.30;99.90;;;;;;5050992;28;20222;-52
2023/02/08 09:26:50;;;;;;;44.78;29.67;;;0.20;99.90;;;;;;5051231;28;20483;-51
2023/02/08 09:29:16;;;;;;;48.75;29.08;;;0.30;99.90;;;;;;5050788;28;20682;-52
2023/02/08 09:31:44;;;;;;;46.35;30.88;;;0.10;99.90;;;;;;5051304;28;20230;-53
2023/02/08 09:34:11;;;;;;;48.22;29.88;;;0.30;99.90;;;;;;5051310;28;20198;-51
2023/02/08 09:36:40;;;;;;;52.60;31.13;;;0.40;99.90;;;;;;5032912;28;20210;-50
2023/02/08 09:39:10;;;;;;;47.20;29.58;;;0.60;99.90;;;;;;5050346;28;20562;-51
2023/02/08 09:42:06;;;;;;;48.75;28.65;;;0.50;99.90;;;;;;5032708;28;20225;-53
2023/02/08 09:44:44;;;;;;;43.58;30.48;;;0.70;99.90;;;;;;5050920;28;20581;-51
2023/02/08 09:47:18;;;;;;;49.63;27.77;;;0.70;99.90;;;;;;5032629;28;20217;-52
2023/02/08 09:49:55;;;;;;;45.65;29.13;;;0.50;99.90;;;;;;5050302;28;20202;-52
2023/02/08 09:52:27;;;;;;;47.97;30.77;;;0.80;99.90;;;;;;5050933;28;20276;-51
2023/02/08 09:54:58;;;;;;;45.35;29.90;;;0.60;99.90;;;;;;5050704;28;20553;-51
2023/02/08 09:57:31;;;;;;;39.05;27.08;;;0.70;99.90;;;;;;5051031;28;20220;-51
2023/02/08 10:00:03;;;;;;;48.42;30.77;;;0.70;99.90;;;;;;5050202;28;20703;-52
2023/02/08 10:02:34;;;;;;;49.65;31.67;;;0.80;99.90;;;;;;5051174;28;20199;-52
2023/02/08 10:05:05;;;;;;;49.00;30.70;;;0.50;99.90;;;;;;5050781;28;20454;-54
2023/02/08 10:07:33;;;;;;;51.00;31.63;;;0.60;99.90;;;;;;5053289;28;20196;-52
2023/02/08 10:10:03;;;;;;;45.67;28.05;;;0.60;99.90;;;;;;5053863;28;20241;-52
2023/02/08 10:12:43;;;;;;;44.90;29.20;;;0.70;99.90;;;;;;5054205;28;20201;-51
2023/02/08 10:15:20;;;;;;;47.28;30.20;;;0.90;99.90;;;;;;5054008;28;20192;-51
2023/02/08 10:18:04;;;;;;;48.60;30.98;;;1.00;99.90;;;;;;5054264;28;20202;-53
2023/02/08 10:20:45;;;;;;;45.85;29.55;;;1.10;99.90;;;;;;5054762;28;20219;-52
2023/02/08 10:23:26;;;;;;;49.20;31.17;;;1.10;99.90;;;;;;5054460;28;20813;-53
2023/02/08 10:26:09;;;;;;;47.67;30.20;;;0.90;99.90;;;;;;5054814;28;20202;-52
2023/02/08 10:29:00;;;;;;;47.17;30.52;;;0.90;99.90;;;;;;5054265;28;20545;-52
2023/02/08 10:31:39;;;;;;;45.35;29.55;;;1.20;99.90;;;;;;5054231;28;20216;-53
2023/02/08 10:34:19;;;;;;;47.80;30.13;;;1.00;99.90;;;;;;5054265;28;20275;-52
2023/02/08 10:36:46;;;;;;;49.83;33.35;;;1.10;99.90;;;;;;5036112;28;20208;-52
2023/02/08 10:39:16;;;;;;;49.80;29.70;;;1.00;99.90;;;;;;5053460;28;20679;-51
2023/02/08 10:41:44;;;;;;;40.08;27.65;;;1.20;99.90;;;;;;5054142;28;20216;-52
2023/02/08 10:44:21;;;;;;;46.85;29.15;;;1.00;99.90;;;;;;5054258;28;20541;-51
2023/02/08 10:46:53;;;;;;;44.30;29.60;;;1.20;99.90;;;;;;5053975;28;20200;-52
2023/02/08 10:49:31;;;;;;;44.60;28.63;;;1.30;99.90;;;;;;5053241;28;20188;-52
2023/02/08 10:51:58;;;;;;;45.50;29.58;;;1.40;99.90;;;;;;5054196;28;20633;-52
2023/02/08 10:54:24;;;;;;;53.17;28.95;;;0.80;99.90;;;;;;5053413;28;20271;-52
2023/02/08 10:56:56;;;;;;;42.33;30.13;;;1.20;99.90;;;;;;5053837;28;20203;-52
2023/02/08 10:59:25;;;;;;;47.42;30.73;;;1.10;99.90;;;;;;5053090;28;20282;-53
2023/02/08 11:01:53;;;;;;;43.17;30.75;;;1.20;99.90;;;;;;5053375;28;20247;-52
2023/02/08 11:04:21;;;;;;;49.45;30.98;;;1.70;99.90;;;;;;5053279;28;20212;-53
2023/02/08 11:06:49;;;;;;;47.58;29.65;;;0.90;99.90;;;;;;5053256;28;20211;-53
2023/02/08 11:09:27;;;;;;;45.85;30.08;;;1.00;99.90;;;;;;5052691;28;20203;-51
2023/02/08 11:11:55;;;;;;;46.72;31.40;;;1.70;99.90;;;;;;5050698;28;20218;-52
2023/02/08 11:14:25;;;;;;;47.42;29.00;;;1.50;99.90;;;;;;5049908;28;20538;-51
2023/02/08 11:16:53;;;;;;;47.22;30.02;;;1.00;99.90;;;;;;5052847;28;20243;-52
2023/02/08 11:19:35;;;;;;;43.42;30.88;;;1.60;99.90;;;;;;5051423;28;20200;-53
2023/02/08 11:22:04;;;;;;;44.55;28.45;;;1.80;99.90;;;;;;5045042;28;20521;-52
2023/02/08 11:24:38;;;;;;;50.47;31.23;;;1.60;99.90;;;;;;5044365;28;20658;-54
2023/02/08 11:27:17;;;;;;;50.47;30.40;;;1.50;99.90;;;;;;5053022;28;20241;-52
2023/02/08 11:29:44;;;;;;;49.03;31.10;;;1.80;99.90;;;;;;5033052;28;20191;-51
2023/02/08 11:32:17;;;;;;;41.78;28.65;;;1.10;99.90;;;;;;5033695;28;20200;-51
2023/02/08 11:34:46;;;;;;;45.65;30.92;;;1.70;99.90;;;;;;5040042;28;20196;-54
2023/02/08 11:37:15;;;;;;;43.63;29.05;;;2.00;99.90;;;;;;5053397;28;20196;-51
2023/02/08 11:39:48;;;;;;;42.80;28.70;;;1.90;99.90;;;;;;5037563;28;20288;-52
2023/02/08 11:42:21;;;;;;;43.67;28.85;;;1.70;99.90;;;;;;5031279;28;20211;-51
2023/02/08 11:44:49;;;;;;;51.58;29.85;;;1.80;99.90;;;;;;5032715;28;20655;-52
2023/02/08 11:47:18;;;;;;;41.53;26.83;;;1.90;99.90;;;;;;5032493;28;20197;-52
2023/02/08 11:49:52;;;;;;;41.13;25.60;;;2.10;99.90;;;;;;5032013;28;20202;-51
2023/02/08 11:52:23;;;;;;;35.17;25.38;;;1.40;99.90;;;;;;5032368;28;20192;-52
2023/02/08 11:54:50;;;;;;;45.53;28.35;;;1.80;99.90;;;;;;5032657;28;20666;-53
2023/02/08 11:57:19;;;;;;;40.42;28.13;;;2.00;99.90;;;;;;5043442;28;20207;-49
2023/02/08 11:59:46;;;;;;;44.70;29.88;;;2.10;99.90;;;;;;5051811;28;20200;-51
2023/02/08 12:02:30;;;;;;;40.00;28.02;;;2.00;99.90;;;;;;5052423;28;20207;-53
2023/02/08 12:04:59;;;;;;;44.25;29.85;;;2.20;99.90;;;;;;5052274;28;20573;-50
2023/02/08 12:07:41;;;;;;;44.85;29.23;;;2.00;99.90;;;;;;5052212;28;20671;-52
2023/02/08 12:10:21;;;;;;;47.53;30.17;;;2.20;99.90;;;;;;5051319;28;20227;-53
2023/02/08 12:13:09;;;;;;;45.78;26.02;;;2.20;99.90;;;;;;5044698;28;20208;-51
2023/02/08 12:15:48;;;;;;;43.03;27.85;;;2.10;99.90;;;;;;5050910;28;20553;-53
2023/02/08 12:18:32;;;;;;;43.70;28.75;;;2.20;99.90;;;;;;5045698;28;20211;-53
2023/02/08 12:21:09;;;;;;;42.75;26.95;;;2.30;99.90;;;;;;5031905;28;20704;-51
2023/02/08 12:23:46;;;;;;;40.05;25.98;;;2.10;99.90;;;;;;5040004;28;20188;-52
2023/02/08 12:26:20;;;;;;;42.15;27.10;;;2.30;99.90;;;;;;5032264;28;20189;-53
2023/02/08 12:29:02;;;;;;;41.15;27.27;;;2.20;99.90;;;;;;5024264;28;20295;-53
2023/02/08 12:31:40;;;;;;;37.05;27.38;;;2.20;99.90;;;;;;5032158;28;20560;-52
2023/02/08 12:34:14;;;;;;;44.92;27.77;;;2.60;99.90;;;;;;5031966;28;20199;-54
2023/02/08 12:43:12;;;;;;;40.35;26.13;;;1.90;99.90;;;;;;4970675;28;20707;-53
2023/02/08 12:46:02;;;;;;;40.17;27.23;;;2.30;99.90;;;;;;4969333;28;20549;-53
2023/02/08 12:48:46;;;;;;;39.03;27.80;;;2.30;99.90;;;;;;5012673;28;20591;-53
2023/02/08 12:51:21;;;;;;;41.55;26.25;;;1.90;99.90;;;;;;5031741;28;20216;-54
2023/02/08 12:53:54;;;;;;;40.92;26.98;;;2.40;99.90;;;;;;5014085;28;20215;-52